sensor_id;sensor_type;location;lat;lon;timestamp;pressure;altitude;pressure_sealevel;temperature;humidity
12123;BME280;6125;59.628;17.852;2024-02-15T00:02:16;101660.88;;;-0.73;89.98
12123;BME280;6125;59.628;17.852;2024-02-15T00:04:50;101661.25;;;-0.70;89.89
12123;BME280;6125;59.628;17.852;2024-02-15T00:07:20;101655.28;;;-0.71;89.91
12123;BME280;6125;59.628;17.852;2024-02-15T00:09:49;101655.06;;;-0.65;89.99
12123;BME280;6125;59.628;17.852;2024-02-15T00:12:24;101662.53;;;-0.66;90.44
12123;BME280;6125;59.628;17.852;2024-02-15T00:14:53;101676.69;;;-0.61;89.88
12123;BME280;6125;59.628;17.852;2024-02-15T00:17:31;101669.22;;;-0.60;90.28
12123;BME280;6125;59.628;17.852;2024-02-15T00:20:02;101670.69;;;-0.69;89.56
12123;BME280;6125;59.628;17.852;2024-02-15T00:22:44;101673.03;;;-0.63;90.25
12123;BME280;6125;59.628;17.852;2024-02-15T00:25:12;101678.31;;;-0.69;89.69
12123;BME280;6125;59.628;17.852;2024-02-15T00:27:40;101676.13;;;-0.66;89.69
12123;BME280;6125;59.628;17.852;2024-02-15T00:30:15;101672.84;;;-0.65;89.81
12123;BME280;6125;59.628;17.852;2024-02-15T00:32:44;101665.59;;;-0.62;89.61
12123;BME280;6125;59.628;17.852;2024-02-15T00:35:13;101666.53;;;-0.61;89.50
12123;BME280;6125;59.628;17.852;2024-02-15T00:37:50;101666.88;;;-0.58;90.07
12123;BME280;6125;59.628;17.852;2024-02-15T00:40:19;101666.53;;;-0.61;89.43
12123;BME280;6125;59.628;17.852;2024-02-15T00:42:47;101671.03;;;-0.59;89.79
12123;BME280;6125;59.628;17.852;2024-02-15T00:45:22;101665.59;;;-0.62;89.47
12123;BME280;6125;59.628;17.852;2024-02-15T00:47:51;101665.22;;;-0.65;89.49
12123;BME280;6125;59.628;17.852;2024-02-15T00:50:21;101664.53;;;-0.64;89.50
12123;BME280;6125;59.628;17.852;2024-02-15T00:52:57;101663.97;;;-0.61;89.57
12123;BME280;6125;59.628;17.852;2024-02-15T00:55:25;101662.88;;;-0.63;89.40
12123;BME280;6125;59.628;17.852;2024-02-15T00:57:54;101675.56;;;-0.63;89.74
12123;BME280;6125;59.628;17.852;2024-02-15T01:00:28;101662.88;;;-0.63;89.15
12123;BME280;6125;59.628;17.852;2024-02-15T01:02:57;101666.53;;;-0.61;89.29
12123;BME280;6125;59.628;17.852;2024-02-15T01:05:26;101663.44;;;-0.66;89.29
12123;BME280;6125;59.628;17.852;2024-02-15T01:08:02;101658.00;;;-0.69;89.50
12123;BME280;6125;59.628;17.852;2024-02-15T01:10:30;101647.84;;;-0.69;89.15
12123;BME280;6125;59.628;17.852;2024-02-15T01:13:00;101650.19;;;-0.71;89.35
12123;BME280;6125;59.628;17.852;2024-02-15T01:15:35;101643.47;;;-0.70;89.96
12123;BME280;6125;59.628;17.852;2024-02-15T01:18:06;101650.19;;;-0.71;89.51
12123;BME280;6125;59.628;17.852;2024-02-15T01:20:34;101658.72;;;-0.70;89.98
12123;BME280;6125;59.628;17.852;2024-02-15T01:23:11;101650.03;;;-0.72;89.53
12123;BME280;6125;59.628;17.852;2024-02-15T01:25:39;101645.13;;;-0.71;89.69
12123;BME280;6125;59.628;17.852;2024-02-15T01:28:07;101635.88;;;-0.70;89.57
12123;BME280;6125;59.628;17.852;2024-02-15T01:30:42;101632.63;;;-0.69;89.79
12123;BME280;6125;59.628;17.852;2024-02-15T01:33:12;101637.16;;;-0.74;89.88
12123;BME280;6125;59.628;17.852;2024-02-15T01:35:41;101636.97;;;-0.75;90.03
12123;BME280;6125;59.628;17.852;2024-02-15T01:38:17;101632.63;;;-0.76;90.26
12123;BME280;6125;59.628;17.852;2024-02-15T01:40:46;101643.31;;;-0.72;89.83
12123;BME280;6125;59.628;17.852;2024-02-15T01:43:15;101650.75;;;-0.80;90.30
12123;BME280;6125;59.628;17.852;2024-02-15T01:45:50;101656.91;;;-0.85;90.73
12123;BME280;6125;59.628;17.852;2024-02-15T01:48:18;101663.81;;;-0.77;90.64
12123;BME280;6125;59.628;17.852;2024-02-15T01:50:47;101662.38;;;-0.75;90.66
12123;BME280;6125;59.628;17.852;2024-02-15T01:53:23;101657.63;;;-0.79;90.91
12123;BME280;6125;59.628;17.852;2024-02-15T01:55:53;101668.88;;;-0.77;90.86
12123;BME280;6125;59.628;17.852;2024-02-15T01:58:29;101649.69;;;-0.75;90.79
12123;BME280;6125;59.628;17.852;2024-02-15T02:01:00;101646.75;;;-0.71;90.93
12123;BME280;6125;59.628;17.852;2024-02-15T02:03:36;101659.63;;;-0.70;90.87
12123;BME280;6125;59.628;17.852;2024-02-15T02:06:04;101642.78;;;-0.69;90.78
12123;BME280;6125;59.628;17.852;2024-02-15T02:08:34;101642.41;;;-0.72;91.30
12123;BME280;6125;59.628;17.852;2024-02-15T02:11:10;101638.41;;;-0.70;91.31
12123;BME280;6125;59.628;17.852;2024-02-15T02:13:37;101635.69;;;-0.72;90.99
12123;BME280;6125;59.628;17.852;2024-02-15T02:16:24;101640.59;;;-0.73;91.32
12123;BME280;6125;59.628;17.852;2024-02-15T02:18:59;101643.13;;;-0.73;90.76
12123;BME280;6125;59.628;17.852;2024-02-15T02:21:28;101644.75;;;-0.74;91.01
12123;BME280;6125;59.628;17.852;2024-02-15T02:23:58;101644.22;;;-0.71;91.09
12123;BME280;6125;59.628;17.852;2024-02-15T02:26:37;101648.94;;;-0.74;90.81
12123;BME280;6125;59.628;17.852;2024-02-15T02:29:06;101651.09;;;-0.70;91.60
12123;BME280;6125;59.628;17.852;2024-02-15T02:31:34;101653.63;;;-0.70;90.95
12123;BME280;6125;59.628;17.852;2024-02-15T02:34:08;101651.28;;;-0.76;91.13
12123;BME280;6125;59.628;17.852;2024-02-15T02:36:37;101651.81;;;-0.93;91.09
12123;BME280;6125;59.628;17.852;2024-02-15T02:39:07;101641.88;;;-0.98;90.80
12123;BME280;6125;59.628;17.852;2024-02-15T02:41:43;101652.38;;;-0.88;91.49
12123;BME280;6125;59.628;17.852;2024-02-15T02:44:11;101650.91;;;-0.79;91.35
12123;BME280;6125;59.628;17.852;2024-02-15T02:46:41;101651.28;;;-0.76;91.35
12123;BME280;6125;59.628;17.852;2024-02-15T02:49:17;101649.28;;;-0.71;91.54
12123;BME280;6125;59.628;17.852;2024-02-15T02:51:45;101644.97;;;-0.72;91.17
12123;BME280;6125;59.628;17.852;2024-02-15T02:54:13;101646.38;;;-0.81;91.62
12123;BME280;6125;59.628;17.852;2024-02-15T02:56:50;101648.41;;;-0.93;91.41
12123;BME280;6125;59.628;17.852;2024-02-15T02:59:18;101649.84;;;-0.88;91.09
12123;BME280;6125;59.628;17.852;2024-02-15T03:01:47;101654.00;;;-0.81;91.49
12123;BME280;6125;59.628;17.852;2024-02-15T03:04:22;101648.59;;;-0.92;91.29
12123;BME280;6125;59.628;17.852;2024-02-15T03:06:50;101651.81;;;-0.93;91.82
12123;BME280;6125;59.628;17.852;2024-02-15T03:09:21;101652.94;;;-0.98;91.62
12123;BME280;6125;59.628;17.852;2024-02-15T03:11:57;101656.19;;;-0.99;91.56
12123;BME280;6125;59.628;17.852;2024-02-15T03:14:25;101648.41;;;-0.86;91.35
12123;BME280;6125;59.628;17.852;2024-02-15T03:16:55;101644.94;;;-0.79;91.31
12123;BME280;6125;59.628;17.852;2024-02-15T03:19:30;101644.41;;;-0.77;91.14
12123;BME280;6125;59.628;17.852;2024-02-15T03:21:58;101632.44;;;-0.78;91.64
12123;BME280;6125;59.628;17.852;2024-02-15T03:24:27;101642.75;;;-0.76;92.03
12123;BME280;6125;59.628;17.852;2024-02-15T03:27:03;101639.31;;;-0.77;92.04
12123;BME280;6125;59.628;17.852;2024-02-15T03:29:32;101644.25;;;-0.78;91.88
12123;BME280;6125;59.628;17.852;2024-02-15T03:32:09;101650.75;;;-0.80;91.71
12123;BME280;6125;59.628;17.852;2024-02-15T03:34:37;101649.31;;;-0.78;91.63
12123;BME280;6125;59.628;17.852;2024-02-15T03:37:06;101658.72;;;-0.77;91.77
12123;BME280;6125;59.628;17.852;2024-02-15T03:39:43;101650.38;;;-0.76;91.93
12123;BME280;6125;59.628;17.852;2024-02-15T03:42:12;101656.53;;;-0.81;91.84
12123;BME280;6125;59.628;17.852;2024-02-15T03:44:40;101661.97;;;-0.93;91.88
12123;BME280;6125;59.628;17.852;2024-02-15T03:47:16;101668.34;;;-0.89;91.68
12123;BME280;6125;59.628;17.852;2024-02-15T03:49:44;101669.22;;;-0.81;91.96
12123;BME280;6125;59.628;17.852;2024-02-15T03:52:12;101662.00;;;-0.78;92.11
12123;BME280;6125;59.628;17.852;2024-02-15T03:54:47;101662.00;;;-0.78;91.95
12123;BME280;6125;59.628;17.852;2024-02-15T03:57:16;101656.53;;;-0.81;91.71
12123;BME280;6125;59.628;17.852;2024-02-15T03:59:44;101660.16;;;-0.79;91.53
12123;BME280;6125;59.628;17.852;2024-02-15T04:02:25;101659.28;;;-0.80;91.62
12123;BME280;6125;59.628;17.852;2024-02-15T04:04:53;101651.84;;;-0.78;91.52
12123;BME280;6125;59.628;17.852;2024-02-15T04:07:22;101656.19;;;-0.77;91.74
12123;BME280;6125;59.628;17.852;2024-02-15T04:09:59;101652.94;;;-0.83;91.57
12123;BME280;6125;59.628;17.852;2024-02-15T04:12:29;101660.53;;;-0.91;91.55
12123;BME280;6125;59.628;17.852;2024-02-15T04:14:58;101663.63;;;-0.86;91.35
12123;BME280;6125;59.628;17.852;2024-02-15T04:17:38;101653.09;;;-0.96;91.40
12123;BME280;6125;59.628;17.852;2024-02-15T04:20:09;101651.81;;;-0.93;91.51
12123;BME280;6125;59.628;17.852;2024-02-15T04:22:45;101654.38;;;-0.85;91.46
12123;BME280;6125;59.628;17.852;2024-02-15T04:25:14;101655.63;;;-0.82;91.72
12123;BME280;6125;59.628;17.852;2024-02-15T04:27:46;101655.84;;;-0.80;91.90
12123;BME280;6125;59.628;17.852;2024-02-15T04:30:21;101667.06;;;-0.78;91.99
12123;BME280;6125;59.628;17.852;2024-02-15T04:32:50;101668.88;;;-0.77;92.00
12123;BME280;6125;59.628;17.852;2024-02-15T04:35:19;101662.19;;;-0.84;91.85
12123;BME280;6125;59.628;17.852;2024-02-15T04:37:55;101659.28;;;-0.94;91.43
12123;BME280;6125;59.628;17.852;2024-02-15T04:40:23;101646.03;;;-0.84;91.52
12123;BME280;6125;59.628;17.852;2024-02-15T04:42:53;101646.59;;;-0.80;91.29
12123;BME280;6125;59.628;17.852;2024-02-15T04:45:28;101648.03;;;-0.82;91.51
12123;BME280;6125;59.628;17.852;2024-02-15T04:47:57;101645.50;;;-0.82;91.38
12123;BME280;6125;59.628;17.852;2024-02-15T04:50:35;101650.75;;;-0.80;91.22
12123;BME280;6125;59.628;17.852;2024-02-15T04:53:03;101650.22;;;-0.78;91.50
12123;BME280;6125;59.628;17.852;2024-02-15T04:55:33;101647.31;;;-0.81;91.60
12123;BME280;6125;59.628;17.852;2024-02-15T04:58:10;101649.88;;;-0.81;91.60
12123;BME280;6125;59.628;17.852;2024-02-15T05:00:38;101643.16;;;-0.80;90.99
12123;BME280;6125;59.628;17.852;2024-02-15T05:03:06;101645.84;;;-0.79;91.53
12123;BME280;6125;59.628;17.852;2024-02-15T05:05:42;101636.25;;;-0.74;91.37
12123;BME280;6125;59.628;17.852;2024-02-15T05:08:10;101647.13;;;-0.75;91.19
12123;BME280;6125;59.628;17.852;2024-02-15T05:10:38;101646.59;;;-0.80;91.30
12123;BME280;6125;59.628;17.852;2024-02-15T05:13:14;101632.28;;;-0.72;91.16
12123;BME280;6125;59.628;17.852;2024-02-15T05:15:43;101642.41;;;-0.72;91.30
12123;BME280;6125;59.628;17.852;2024-02-15T05:18:12;101646.41;;;-0.74;91.35
12123;BME280;6125;59.628;17.852;2024-02-15T05:20:47;101652.56;;;-0.72;91.11
12123;BME280;6125;59.628;17.852;2024-02-15T05:23:15;101647.84;;;-0.69;91.14
12123;BME280;6125;59.628;17.852;2024-02-15T05:25:45;101644.97;;;-0.72;90.97
12123;BME280;6125;59.628;17.852;2024-02-15T05:28:21;101640.41;;;-0.68;91.17
12123;BME280;6125;59.628;17.852;2024-02-15T05:31:09;101643.47;;;-0.63;90.51
12123;BME280;6125;59.628;17.852;2024-02-15T05:33:44;101650.72;;;-0.73;91.23
12123;BME280;6125;59.628;17.852;2024-02-15T05:36:16;101654.00;;;-0.74;90.91
12123;BME280;6125;59.628;17.852;2024-02-15T05:38:53;101665.59;;;-0.76;90.82
12123;BME280;6125;59.628;17.852;2024-02-15T05:41:22;101664.88;;;-0.68;91.06
12123;BME280;6125;59.628;17.852;2024-02-15T05:43:52;101666.31;;;-0.63;90.67
12123;BME280;6125;59.628;17.852;2024-02-15T05:46:27;101664.34;;;-0.65;90.61
12123;BME280;6125;59.628;17.852;2024-02-15T05:48:55;101660.69;;;-0.68;91.13
12123;BME280;6125;59.628;17.852;2024-02-15T05:51:24;101663.63;;;-0.72;90.92
12123;BME280;6125;59.628;17.852;2024-02-15T05:53:59;101672.13;;;-0.71;90.74
12123;BME280;6125;59.628;17.852;2024-02-15T05:56:27;101660.88;;;-0.73;91.08
12123;BME280;6125;59.628;17.852;2024-02-15T05:58:57;101668.16;;;-0.69;90.52
12123;BME280;6125;59.628;17.852;2024-02-15T06:01:32;101660.72;;;-0.75;90.71
12123;BME280;6125;59.628;17.852;2024-02-15T06:04:00;101668.13;;;-0.76;90.82
12123;BME280;6125;59.628;17.852;2024-02-15T06:06:31;101664.53;;;-0.78;90.73
12123;BME280;6125;59.628;17.852;2024-02-15T06:09:07;101666.16;;;-0.79;91.06
12123;BME280;6125;59.628;17.852;2024-02-15T06:11:35;101653.63;;;-0.70;90.57
12123;BME280;6125;59.628;17.852;2024-02-15T06:14:05;101660.69;;;-0.68;90.95
12123;BME280;6125;59.628;17.852;2024-02-15T06:16:44;101655.28;;;-0.71;90.93
12123;BME280;6125;59.628;17.852;2024-02-15T06:19:13;101661.25;;;-0.63;91.22
12123;BME280;6125;59.628;17.852;2024-02-15T06:21:48;101659.81;;;-0.61;91.27
12123;BME280;6125;59.628;17.852;2024-02-15T06:24:16;101665.03;;;-0.59;90.59
12123;BME280;6125;59.628;17.852;2024-02-15T06:26:44;101661.25;;;-0.56;90.65
12123;BME280;6125;59.628;17.852;2024-02-15T06:29:23;101655.63;;;-0.53;90.92
12123;BME280;6125;59.628;17.852;2024-02-15T06:32:09;101657.63;;;-0.58;90.67
12123;BME280;6125;59.628;17.852;2024-02-15T06:35:01;101664.16;;;-0.53;90.81
12123;BME280;6125;59.628;17.852;2024-02-15T06:37:49;101668.28;;;-0.46;90.64
12123;BME280;6125;59.628;17.852;2024-02-15T06:40:41;101676.66;;;-0.47;90.47
12123;BME280;6125;59.628;17.852;2024-02-15T06:43:09;101676.47;;;-0.49;90.40
12123;BME280;6125;59.628;17.852;2024-02-15T06:45:41;101685.16;;;-0.47;90.20
12123;BME280;6125;59.628;17.852;2024-02-15T06:48:20;101690.59;;;-0.51;89.62
12123;BME280;6125;59.628;17.852;2024-02-15T06:50:48;101688.06;;;-0.51;90.24
12123;BME280;6125;59.628;17.852;2024-02-15T06:53:17;101685.91;;;-0.48;89.92
12123;BME280;6125;59.628;17.852;2024-02-15T06:55:53;101693.84;;;-0.37;89.71
12123;BME280;6125;59.628;17.852;2024-02-15T06:58:21;101689.13;;;-0.34;90.14
12123;BME280;6125;59.628;17.852;2024-02-15T07:00:57;101689.31;;;-0.33;90.15
12123;BME280;6125;59.628;17.852;2024-02-15T07:03:32;101694.56;;;-0.31;89.94
12123;BME280;6125;59.628;17.852;2024-02-15T07:06:00;101697.66;;;-0.27;89.69
12123;BME280;6125;59.628;17.852;2024-02-15T07:08:42;101696.41;;;-0.30;89.90
12123;BME280;6125;59.628;17.852;2024-02-15T07:11:11;101695.50;;;-0.31;89.88
12123;BME280;6125;59.628;17.852;2024-02-15T07:13:39;101690.56;;;-0.29;90.03
12123;BME280;6125;59.628;17.852;2024-02-15T07:16:15;101712.72;;;-0.35;89.37
12123;BME280;6125;59.628;17.852;2024-02-15T07:18:44;101695.31;;;-0.32;89.56
12123;BME280;6125;59.628;17.852;2024-02-15T07:21:13;101705.81;;;-0.29;89.91
12123;BME280;6125;59.628;17.852;2024-02-15T07:23:50;101694.91;;;-0.28;89.75
12123;BME280;6125;59.628;17.852;2024-02-15T07:26:18;101698.91;;;-0.23;89.64
12123;BME280;6125;59.628;17.852;2024-02-15T07:28:47;101694.91;;;-0.21;90.00
12123;BME280;6125;59.628;17.852;2024-02-15T07:31:28;101693.81;;;-0.16;90.36
12123;BME280;6125;59.628;17.852;2024-02-15T07:33:57;101707.63;;;-0.14;90.01
12123;BME280;6125;59.628;17.852;2024-02-15T07:36:32;101705.22;;;-0.05;90.17
12123;BME280;6125;59.628;17.852;2024-02-15T07:39:00;101715.19;;;-0.07;89.71
12123;BME280;6125;59.628;17.852;2024-02-15T07:41:30;101704.28;;;-0.06;89.32
12123;BME280;6125;59.628;17.852;2024-02-15T07:44:06;101703.94;;;-0.09;89.21
12123;BME280;6125;59.628;17.852;2024-02-15T07:46:36;101708.47;;;-0.06;89.59
12123;BME280;6125;59.628;17.852;2024-02-15T07:49:05;101705.59;;;-0.09;89.35
12123;BME280;6125;59.628;17.852;2024-02-15T07:51:41;101704.13;;;0.00;89.04
12123;BME280;6125;59.628;17.852;2024-02-15T07:54:10;101705.56;;;-0.02;89.29
12123;BME280;6125;59.628;17.852;2024-02-15T07:56:38;101705.03;;;0.01;88.81
12123;BME280;6125;59.628;17.852;2024-02-15T07:59:13;101708.06;;;0.05;89.12
12123;BME280;6125;59.628;17.852;2024-02-15T08:01:45;101695.72;;;0.15;88.94
12123;BME280;6125;59.628;17.852;2024-02-15T08:04:21;101711.84;;;0.16;88.36
12123;BME280;6125;59.628;17.852;2024-02-15T08:06:50;101700.03;;;0.24;89.11
12123;BME280;6125;59.628;17.852;2024-02-15T08:09:20;101695.84;;;0.24;88.43
12123;BME280;6125;59.628;17.852;2024-02-15T08:11:57;101690.75;;;0.31;88.47
12123;BME280;6125;59.628;17.852;2024-02-15T08:14:25;101715.03;;;0.36;88.24
12123;BME280;6125;59.628;17.852;2024-02-15T08:16:55;101708.56;;;0.31;87.76
12123;BME280;6125;59.628;17.852;2024-02-15T08:19:30;101708.16;;;0.35;87.83
12123;BME280;6125;59.628;17.852;2024-02-15T08:22:04;101706.00;;;0.31;87.85
12123;BME280;6125;59.628;17.852;2024-02-15T08:24:39;101701.97;;;0.40;87.41
12123;BME280;6125;59.628;17.852;2024-02-15T08:27:07;101707.53;;;0.52;87.30
12123;BME280;6125;59.628;17.852;2024-02-15T08:29:38;101699.78;;;0.74;87.34
12123;BME280;6125;59.628;17.852;2024-02-15T08:32:15;101706.53;;;0.73;86.63
12123;BME280;6125;59.628;17.852;2024-02-15T08:34:43;101699.38;;;0.78;86.46
12123;BME280;6125;59.628;17.852;2024-02-15T08:37:11;101712.81;;;0.47;86.77
12123;BME280;6125;59.628;17.852;2024-02-15T08:39:46;101703.63;;;0.70;87.17
12123;BME280;6125;59.628;17.852;2024-02-15T08:42:14;101701.56;;;0.82;86.58
12123;BME280;6125;59.628;17.852;2024-02-15T08:44:42;101707.91;;;0.78;86.03
12123;BME280;6125;59.628;17.852;2024-02-15T08:47:18;101705.16;;;0.84;85.72
12123;BME280;6125;59.628;17.852;2024-02-15T08:49:47;101701.44;;;0.73;86.35
12123;BME280;6125;59.628;17.852;2024-02-15T08:52:16;101714.41;;;0.60;86.01
12123;BME280;6125;59.628;17.852;2024-02-15T08:54:51;101702.28;;;0.51;86.82
12123;BME280;6125;59.628;17.852;2024-02-15T08:57:19;101704.97;;;0.59;87.37
12123;BME280;6125;59.628;17.852;2024-02-15T08:59:48;101702.56;;;0.68;86.34
12123;BME280;6125;59.628;17.852;2024-02-15T09:02:26;101707.28;;;0.65;87.02
12123;BME280;6125;59.628;17.852;2024-02-15T09:04:54;101711.00;;;0.83;86.89
12123;BME280;6125;59.628;17.852;2024-02-15T09:07:23;101705.78;;;0.74;86.28
12123;BME280;6125;59.628;17.852;2024-02-15T09:09:59;101711.53;;;0.87;85.66
12123;BME280;6125;59.628;17.852;2024-02-15T09:12:27;101706.03;;;0.92;85.96
12123;BME280;6125;59.628;17.852;2024-02-15T09:14:55;101707.78;;;1.00;85.84
12123;BME280;6125;59.628;17.852;2024-02-15T09:17:31;101695.84;;;1.15;85.29
12123;BME280;6125;59.628;17.852;2024-02-15T09:20:07;101697.94;;;1.03;84.51
12123;BME280;6125;59.628;17.852;2024-02-15T09:22:48;101696.16;;;1.02;85.52
12123;BME280;6125;59.628;17.852;2024-02-15T09:25:17;101706.59;;;1.12;85.85
12123;BME280;6125;59.628;17.852;2024-02-15T09:27:45;101701.91;;;1.08;84.82
12123;BME280;6125;59.628;17.852;2024-02-15T09:30:21;101698.25;;;1.13;84.50
12123;BME280;6125;59.628;17.852;2024-02-15T09:32:53;101696.16;;;1.02;85.02
12123;BME280;6125;59.628;17.852;2024-02-15T09:35:28;101697.34;;;1.13;84.71
12123;BME280;6125;59.628;17.852;2024-02-15T09:37:57;101691.00;;;1.09;84.88
12123;BME280;6125;59.628;17.852;2024-02-15T09:40:25;101698.53;;;1.23;84.83
12123;BME280;6125;59.628;17.852;2024-02-15T09:43:02;101693.72;;;1.33;84.28
12123;BME280;6125;59.628;17.852;2024-02-15T09:45:31;101683.47;;;1.41;84.10
12123;BME280;6125;59.628;17.852;2024-02-15T09:48:06;101687.34;;;1.53;84.12
12123;BME280;6125;59.628;17.852;2024-02-15T09:50:42;101683.66;;;1.58;84.40
12123;BME280;6125;59.628;17.852;2024-02-15T09:53:12;101684.50;;;1.82;82.68
12123;BME280;6125;59.628;17.852;2024-02-15T09:55:48;101696.91;;;1.78;82.86
12123;BME280;6125;59.628;17.852;2024-02-15T09:58:16;101681.00;;;1.88;82.48
12123;BME280;6125;59.628;17.852;2024-02-15T10:00:45;101684.50;;;1.82;82.51
12123;BME280;6125;59.628;17.852;2024-02-15T10:03:23;101679.72;;;1.85;82.80
12123;BME280;6125;59.628;17.852;2024-02-15T10:05:55;101675.47;;;1.92;82.56
12123;BME280;6125;59.628;17.852;2024-02-15T10:08:31;101686.06;;;2.20;81.10
12123;BME280;6125;59.628;17.852;2024-02-15T10:11:06;101684.09;;;2.17;80.68
12123;BME280;6125;59.628;17.852;2024-02-15T10:13:41;101682.53;;;1.95;81.78
12123;BME280;6125;59.628;17.852;2024-02-15T10:16:15;101687.00;;;2.05;81.47
12123;BME280;6125;59.628;17.852;2024-02-15T10:18:51;101688.06;;;1.91;81.79
12123;BME280;6125;59.628;17.852;2024-02-15T10:21:26;101690.03;;;1.93;82.37
12123;BME280;6125;59.628;17.852;2024-02-15T10:24:05;101684.78;;;1.92;81.90
12123;BME280;6125;59.628;17.852;2024-02-15T10:26:35;101686.16;;;1.81;81.76
12123;BME280;6125;59.628;17.852;2024-02-15T10:29:11;101689.28;;;1.78;82.38
12123;BME280;6125;59.628;17.852;2024-02-15T10:31:54;101689.94;;;1.85;82.64
12123;BME280;6125;59.628;17.852;2024-02-15T10:34:31;101679.72;;;1.53;82.95
12123;BME280;6125;59.628;17.852;2024-02-15T10:37:10;101696.16;;;1.64;83.97
12123;BME280;6125;59.628;17.852;2024-02-15T10:39:45;101680.38;;;1.59;83.42
12123;BME280;6125;59.628;17.852;2024-02-15T10:42:16;101685.00;;;1.70;83.49
12123;BME280;6125;59.628;17.852;2024-02-15T10:44:46;101673.31;;;1.72;83.28
12123;BME280;6125;59.628;17.852;2024-02-15T10:47:22;101680.69;;;1.62;83.97
12123;BME280;6125;59.628;17.852;2024-02-15T10:49:51;101683.69;;;1.74;83.84
12123;BME280;6125;59.628;17.852;2024-02-15T10:52:20;101691.19;;;1.88;83.65
12123;BME280;6125;59.628;17.852;2024-02-15T10:55:03;101687.16;;;1.74;82.62
12123;BME280;6125;59.628;17.852;2024-02-15T10:57:32;101690.53;;;1.82;82.63
12123;BME280;6125;59.628;17.852;2024-02-15T11:00:08;101694.38;;;1.78;83.55
12123;BME280;6125;59.628;17.852;2024-02-15T11:02:56;101700.13;;;1.85;82.91
12123;BME280;6125;59.628;17.852;2024-02-15T11:05:37;101693.91;;;1.74;83.26
12123;BME280;6125;59.628;17.852;2024-02-15T11:08:07;101690.69;;;1.29;84.65
12123;BME280;6125;59.628;17.852;2024-02-15T11:10:42;101688.91;;;1.21;85.32
12123;BME280;6125;59.628;17.852;2024-02-15T11:13:11;101684.84;;;1.69;84.10
12123;BME280;6125;59.628;17.852;2024-02-15T11:15:42;101688.75;;;1.58;83.55
12123;BME280;6125;59.628;17.852;2024-02-15T11:18:44;101694.16;;;2.16;83.21
12123;BME280;6125;59.628;17.852;2024-02-15T11:21:15;101693.06;;;1.98;82.42
12123;BME280;6125;59.628;17.852;2024-02-15T11:23:50;101695.56;;;2.05;81.97
12123;BME280;6125;59.628;17.852;2024-02-15T11:26:44;101690.03;;;1.93;82.29
12123;BME280;6125;59.628;17.852;2024-02-15T11:29:50;101699.06;;;2.14;82.63
12123;BME280;6125;59.628;17.852;2024-02-15T11:32:39;101697.19;;;1.89;82.34
12123;BME280;6125;59.628;17.852;2024-02-15T11:35:18;101688.63;;;1.72;83.19
12123;BME280;6125;59.628;17.852;2024-02-15T11:37:57;101689.75;;;1.67;83.70
12123;BME280;6125;59.628;17.852;2024-02-15T11:41:05;101698.25;;;1.91;82.44
12123;BME280;6125;59.628;17.852;2024-02-15T11:46:31;101706.13;;;2.01;83.04
12123;BME280;6125;59.628;17.852;2024-02-15T11:49:01;101708.28;;;2.21;82.38
12123;BME280;6125;59.628;17.852;2024-02-15T11:51:32;101706.22;;;2.26;81.62
12123;BME280;6125;59.628;17.852;2024-02-15T11:54:12;101709.59;;;2.33;81.06
12123;BME280;6125;59.628;17.852;2024-02-15T11:56:51;101702.59;;;2.23;80.88
12123;BME280;6125;59.628;17.852;2024-02-15T11:59:27;101709.25;;;1.98;81.59
12123;BME280;6125;59.628;17.852;2024-02-15T12:01:59;101699.88;;;1.74;82.06
12123;BME280;6125;59.628;17.852;2024-02-15T12:04:52;101695.75;;;1.68;82.82
12123;BME280;6125;59.628;17.852;2024-02-15T12:07:40;101702.78;;;2.09;81.62
12123;BME280;6125;59.628;17.852;2024-02-15T12:10:33;101700.38;;;2.42;79.61
12123;BME280;6125;59.628;17.852;2024-02-15T12:13:19;101700.78;;;2.07;81.04
12123;BME280;6125;59.628;17.852;2024-02-15T12:16:15;101700.31;;;2.02;81.00
12123;BME280;6125;59.628;17.852;2024-02-15T12:19:01;101690.50;;;1.66;82.88
12123;BME280;6125;59.628;17.852;2024-02-15T12:21:37;101695.69;;;1.75;82.87
12123;BME280;6125;59.628;17.852;2024-02-15T12:24:08;101699.38;;;1.70;83.07
12123;BME280;6125;59.628;17.852;2024-02-15T12:26:45;101700.81;;;1.91;82.21
12123;BME280;6125;59.628;17.852;2024-02-15T12:29:16;101698.31;;;1.84;82.63
12123;BME280;6125;59.628;17.852;2024-02-15T12:31:51;101696.69;;;1.68;83.54
12123;BME280;6125;59.628;17.852;2024-02-15T12:34:21;101696.81;;;1.70;82.72
12123;BME280;6125;59.628;17.852;2024-02-15T12:36:49;101691.91;;;1.71;83.55
12123;BME280;6125;59.628;17.852;2024-02-15T12:39:25;101698.56;;;1.78;82.92
12123;BME280;6125;59.628;17.852;2024-02-15T12:41:56;101695.88;;;1.76;83.03
12123;BME280;6125;59.628;17.852;2024-02-15T12:44:24;101711.38;;;1.71;82.52
12123;BME280;6125;59.628;17.852;2024-02-15T12:47:03;101696.69;;;1.84;82.20
12123;BME280;6125;59.628;17.852;2024-02-15T12:49:32;101692.47;;;1.85;82.17
12123;BME280;6125;59.628;17.852;2024-02-15T12:52:35;101695.53;;;1.34;83.72
12123;BME280;6125;59.628;17.852;2024-02-15T12:55:15;101691.22;;;1.49;83.55
12123;BME280;6125;59.628;17.852;2024-02-15T12:57:47;101682.75;;;1.58;83.05
12123;BME280;6125;59.628;17.852;2024-02-15T13:00:26;101676.31;;;1.45;83.38
12123;BME280;6125;59.628;17.852;2024-02-15T13:02:56;101671.03;;;1.67;83.19
12123;BME280;6125;59.628;17.852;2024-02-15T13:05:25;101691.06;;;1.64;83.33
12123;BME280;6125;59.628;17.852;2024-02-15T13:08:00;101678.47;;;1.49;82.81
12123;BME280;6125;59.628;17.852;2024-02-15T13:10:29;101677.94;;;1.06;84.36
12123;BME280;6125;59.628;17.852;2024-02-15T13:13:00;101680.00;;;1.17;84.65
12123;BME280;6125;59.628;17.852;2024-02-15T13:15:34;101669.13;;;1.18;84.72
12123;BME280;6125;59.628;17.852;2024-02-15T13:18:04;101675.63;;;1.23;85.00
12123;BME280;6125;59.628;17.852;2024-02-15T13:20:33;101674.81;;;1.31;84.20
12123;BME280;6125;59.628;17.852;2024-02-15T13:23:11;101671.13;;;1.37;83.74
12123;BME280;6125;59.628;17.852;2024-02-15T13:25:46;101671.44;;;1.40;83.88
12123;BME280;6125;59.628;17.852;2024-02-15T13:28:22;101682.91;;;1.20;84.31
12123;BME280;6125;59.628;17.852;2024-02-15T13:30:51;101687.53;;;1.31;84.82